Mandaree, North Dakota
Current Conditions -  °F | °C
As of 11:55 PM on Saturday 22 Nov 2014 (Local Time) from K08D Reporting Station
Clear Clear  
Wind Chill: 23°   Ceiling: Unl
Heat Index: 34°   Visibility: 10mi
Dew Point: 30°   Wind: 17mph
Humidity: 87%   Direction: 260°W
Pressure: 29.28"   Gusts: 23mph
Location:  47.72°N, 102.69°W
Report Text: K08D 230555Z AUTO 26015G20KT 10SM CLR 01/M01 A2928 RMK AO2
Loading
Personal Weather Stations






























Interactive Weather Map New forecast layout! Learn more

10-Day Weather Forecast

Advertisements
Track Severe Weather on mobile